JA42DA RJFK-RJFM

Flight info

Callsign JA42DA
Flight time 0h 31m
Altitude 9000
Route KGE JINGU MZE
Aircraft DA42/L-V/N

Departure

Time 2026-05-08 12:36
Airport Kagoshima Airport (RJFK)

Arrival

Time 2026-05-08 13:07
Airport Miyazaki Airport (RJFM)
Time Latitude Longitude Altitude Speed Heading
2026-05-08 12:11 31.79641 130.72071 875 ft 0 kts 328°
2026-05-08 12:30 31.79643 130.72070 875 ft 2 kts 353°
2026-05-08 12:31 31.79635 130.72106 874 ft 11 kts 77°
2026-05-08 12:31 31.79658 130.72174 874 ft 9 kts 154°
2026-05-08 12:31 31.79602 130.72211 873 ft 10 kts 149°
2026-05-08 12:31 31.79541 130.72253 872 ft 11 kts 151°
2026-05-08 12:32 31.79488 130.72312 871 ft 11 kts 97°
2026-05-08 12:32 31.79508 130.72382 870 ft 7 kts 62°
2026-05-08 12:32 31.79513 130.72391 870 ft 0 kts 55°
2026-05-08 12:35 31.79546 130.72441 871 ft 13 kts 40°
2026-05-08 12:35 31.79585 130.72444 872 ft 0 kts 332°
2026-05-08 12:35 31.79704 130.72364 873 ft 48 kts 330°
2026-05-08 12:35 31.80089 130.72103 1013 ft 70 kts 332°
2026-05-08 12:36 31.80530 130.71824 1309 ft 74 kts 331°
2026-05-08 12:36 31.80985 130.71522 1660 ft 75 kts 332°
2026-05-08 12:36 31.81434 130.71199 2044 ft 77 kts 330°
2026-05-08 12:36 31.81945 130.71061 2457 ft 80 kts
2026-05-08 12:37 31.82505 130.71103 2802 ft 79 kts
2026-05-08 12:37 31.83002 130.71131 3380 ft 66 kts
2026-05-08 12:37 31.83438 130.71100 3755 ft 63 kts 339°
2026-05-08 12:37 31.83832 130.70974 4107 ft 57 kts 352°
2026-05-08 12:38 31.84252 130.70851 4313 ft 72 kts 344°
2026-05-08 12:38 31.84780 130.70657 4592 ft 86 kts 336°
2026-05-08 12:38 31.85310 130.70277 4840 ft 92 kts 334°
2026-05-08 12:38 31.85921 130.70070 5201 ft 94 kts 346°
2026-05-08 12:39 31.86564 130.69878 5483 ft 96 kts 345°
2026-05-08 12:39 31.87178 130.69705 5890 ft 86 kts 344°
2026-05-08 12:39 31.87746 130.69534 6364 ft 82 kts 341°
2026-05-08 12:39 31.88304 130.69375 6796 ft 83 kts 343°
2026-05-08 12:40 31.88854 130.69205 7101 ft 82 kts 339°
2026-05-08 12:40 31.89411 130.69027 7510 ft 83 kts 339°
2026-05-08 12:40 31.89962 130.68821 7784 ft 83 kts 335°
2026-05-08 12:40 31.90512 130.68601 8079 ft 84 kts 335°
2026-05-08 12:41 31.91097 130.68735 8360 ft 105 kts 38°
2026-05-08 12:41 31.91191 130.69642 8666 ft 126 kts 116°
2026-05-08 12:41 31.90663 130.70462 8985 ft 133 kts 131°
2026-05-08 12:41 31.90017 130.71401 9007 ft 160 kts 133°
2026-05-08 12:42 31.89264 130.72481 9006 ft 177 kts 133°
2026-05-08 12:42 31.88477 130.73592 9011 ft 176 kts 132°
2026-05-08 12:42 31.87708 130.74680 8997 ft 169 kts 132°
2026-05-08 12:42 31.86968 130.75729 8998 ft 164 kts 133°
2026-05-08 12:43 31.86250 130.76740 9004 ft 162 kts 134°
2026-05-08 12:43 31.85587 130.77814 9000 ft 164 kts 116°
2026-05-08 12:43 31.85244 130.79086 8996 ft 163 kts 96°
2026-05-08 12:43 31.85120 130.80403 9001 ft 160 kts 92°
2026-05-08 12:44 31.85014 130.81696 8995 ft 162 kts 92°
2026-05-08 12:44 31.84909 130.83007 9006 ft 162 kts 93°
2026-05-08 12:44 31.84812 130.84331 8999 ft 163 kts 92°
2026-05-08 12:44 31.84712 130.85652 9006 ft 162 kts 92°
2026-05-08 12:45 31.84631 130.86987 8997 ft 163 kts 86°
2026-05-08 12:45 31.84897 130.88254 9013 ft 161 kts 65°
2026-05-08 12:45 31.85280 130.89505 9010 ft 166 kts 65°
2026-05-08 12:45 31.85671 130.90741 9002 ft 156 kts 63°
2026-05-08 12:46 31.86042 130.91925 9025 ft 155 kts 63°
2026-05-08 12:46 31.86429 130.93144 9017 ft 160 kts 63°
2026-05-08 12:46 31.86825 130.94381 9024 ft 163 kts 61°
2026-05-08 12:46 31.87256 130.95617 9005 ft 167 kts 63°
2026-05-08 12:47 31.87682 130.96892 9022 ft 169 kts 64°
2026-05-08 12:47 31.88101 130.98181 9020 ft 169 kts 64°
2026-05-08 12:47 31.88519 130.99465 9007 ft 166 kts 64°
2026-05-08 12:47 31.88921 131.00708 9008 ft 159 kts 63°
2026-05-08 12:48 31.89315 131.01919 9045 ft 158 kts 64°
2026-05-08 12:48 31.89707 131.03124 9051 ft 156 kts 63°
2026-05-08 12:48 31.90099 131.04330 9059 ft 159 kts 65°
2026-05-08 12:48 31.90234 131.05627 9070 ft 162 kts 92°
2026-05-08 12:49 31.90143 131.06937 9066 ft 159 kts 92°
2026-05-08 12:49 31.90069 131.08248 9053 ft 164 kts 92°
2026-05-08 12:49 31.89986 131.09606 9037 ft 167 kts 91°
2026-05-08 12:49 31.89904 131.10974 9042 ft 169 kts 92°
2026-05-08 12:50 31.89820 131.12354 9025 ft 166 kts 92°
2026-05-08 12:50 31.89736 131.13693 9025 ft 162 kts 92°
2026-05-08 12:50 31.89659 131.14997 9019 ft 160 kts 92°
2026-05-08 12:50 31.89579 131.16284 9021 ft 156 kts 92°
2026-05-08 12:51 31.89503 131.17550 9010 ft 153 kts 92°
2026-05-08 12:51 31.89349 131.20047 9005 ft 151 kts 92°
2026-05-08 12:51 31.89274 131.21260 9004 ft 150 kts 92°
2026-05-08 12:52 31.89200 131.22490 9008 ft 152 kts 92°
2026-05-08 12:52 31.89039 131.25081 9003 ft 161 kts 92°
2026-05-08 12:52 31.88957 131.26417 8879 ft 167 kts 92°
2026-05-08 12:53 31.88871 131.27804 8701 ft 173 kts 92°
2026-05-08 12:53 31.88781 131.29230 8451 ft 177 kts 92°
2026-05-08 12:53 31.88694 131.30619 8195 ft 164 kts 91°
2026-05-08 12:53 31.88613 131.31916 7944 ft 155 kts 91°
2026-05-08 12:54 31.88536 131.33145 7695 ft 145 kts 90°
2026-05-08 12:54 31.88465 131.34320 7440 ft 143 kts 90°
2026-05-08 12:54 31.88391 131.35473 7207 ft 143 kts 89°
2026-05-08 12:54 31.88317 131.36642 6991 ft 144 kts 89°
2026-05-08 12:55 31.88246 131.37813 6735 ft 140 kts 89°
2026-05-08 12:55 31.88179 131.38892 6536 ft 125 kts 89°
2026-05-08 12:55 31.88107 131.39960 6349 ft 138 kts 88°
2026-05-08 12:55 31.88040 131.41110 6158 ft 147 kts 88°
2026-05-08 12:56 31.87979 131.42331 5956 ft 151 kts 89°
2026-05-08 12:56 31.87923 131.43572 5752 ft 152 kts 89°
2026-05-08 12:56 31.87872 131.44819 5556 ft 152 kts 89°
2026-05-08 12:56 31.87612 131.46019 5358 ft 151 kts 110°
2026-05-08 12:57 31.87227 131.47107 5151 ft 140 kts 101°
2026-05-08 12:57 31.87042 131.48184 4950 ft 130 kts 97°
2026-05-08 12:57 31.86875 131.49202 4755 ft 124 kts 97°
2026-05-08 12:57 31.86710 131.50176 4548 ft 120 kts 98°
2026-05-08 12:58 31.86552 131.51151 4338 ft 123 kts 97°
2026-05-08 12:58 31.86394 131.52140 4162 ft 123 kts 97°
2026-05-08 12:58 31.86240 131.53119 3987 ft 123 kts 97°
2026-05-08 12:58 31.86085 131.54106 3810 ft 123 kts 97°
2026-05-08 12:59 31.85933 131.55095 3633 ft 123 kts 97°
2026-05-08 12:59 31.85779 131.56105 3469 ft 127 kts 98°
2026-05-08 12:59 31.85595 131.57145 3291 ft 132 kts 99°
2026-05-08 12:59 31.85396 131.58208 3116 ft 133 kts 100°
2026-05-08 13:00 31.85206 131.59256 2948 ft 132 kts 100°
2026-05-08 13:00 31.85012 131.60320 2771 ft 133 kts 99°
2026-05-08 13:00 31.84818 131.61388 2604 ft 133 kts 100°
2026-05-08 13:00 31.84701 131.62442 2419 ft 127 kts 75°
2026-05-08 13:01 31.85244 131.63172 2254 ft 121 kts 15°
2026-05-08 13:01 31.86083 131.63181 2085 ft 122 kts 355°
2026-05-08 13:01 31.86909 131.63110 2000 ft 116 kts 355°
2026-05-08 13:01 31.87652 131.62944 1997 ft 103 kts 325°
2026-05-08 13:02 31.88115 131.62360 2006 ft 93 kts 315°
2026-05-08 13:02 31.88408 131.61705 1990 ft 92 kts 295°
2026-05-08 13:02 31.88625 131.60939 2000 ft 105 kts 289°
2026-05-08 13:02 31.88697 131.60052 1995 ft 114 kts 274°
2026-05-08 13:03 31.88684 131.59103 1996 ft 113 kts 271°
2026-05-08 13:03 31.88644 131.58228 1982 ft 101 kts 271°
2026-05-08 13:03 31.88598 131.57403 1873 ft 102 kts 270°
2026-05-08 13:03 31.88550 131.56564 1743 ft 103 kts 269°
2026-05-08 13:04 31.88492 131.55734 1604 ft 103 kts 269°
2026-05-08 13:04 31.88432 131.54882 1451 ft 102 kts 269°
2026-05-08 13:04 31.88375 131.54072 1323 ft 99 kts 268°
2026-05-08 13:04 31.88317 131.53270 1202 ft 97 kts 270°
2026-05-08 13:05 31.88259 131.52473 1062 ft 97 kts 267°
2026-05-08 13:05 31.88202 131.51685 936 ft 99 kts 267°
2026-05-08 13:05 31.88145 131.50885 807 ft 97 kts 267°
2026-05-08 13:05 31.88090 131.50110 689 ft 95 kts 265°
2026-05-08 13:06 31.88035 131.49343 563 ft 92 kts 266°
2026-05-08 13:06 31.87982 131.48621 459 ft 89 kts 265°
2026-05-08 13:06 31.87930 131.47885 347 ft 90 kts 264°
2026-05-08 13:06 31.87877 131.47153 235 ft 88 kts 265°
2026-05-08 13:07 31.87826 131.46443 125 ft 86 kts 265°
2026-05-08 13:07 31.87782 131.45788 28 ft 66 kts 265°
2026-05-08 13:07 31.87751 131.45378 25 ft 38 kts 265°
2026-05-08 13:07 31.87732 131.45123 25 ft 26 kts 265°
2026-05-08 13:08 31.87664 131.45075 27 ft 9 kts 173°
2026-05-08 13:08 31.87628 131.45080 28 ft 0 kts 178°
2026-05-08 13:09 31.87625 131.45081 28 ft 5 kts 175°
2026-05-08 13:09 31.87566 131.45143 29 ft 14 kts 93°
2026-05-08 13:09 31.87575 131.45255 29 ft 14 kts 91°
2026-05-08 13:10 31.87581 131.45363 29 ft 12 kts 86°
2026-05-08 13:10 31.87591 131.45430 29 ft 0 kts 95°
2026-05-08 13:10 31.87588 131.45465 29 ft 7 kts 86°
2026-05-08 13:10 31.87609 131.45536 29 ft 10 kts 37°
2026-05-08 13:11 31.87667 131.45558 28 ft 8 kts 10°
2026-05-08 13:11 31.87671 131.45559 28 ft 0 kts